This demonstration page uses our WeatherBlox Daily Observations layout. Learn more.

38.89511, -77.03637

Hourly Observations for June 29, 2018

Temp ( °F °C ) Dew Point ( °F °C ) Humidity (%) Winds ( mph kmh ) Pressure ( in mb ) Visibility ( mi km ) Precip ( " mm )
12:52 am 00:52 Clear 77 25 66 18.9 69 69 NNW 5 7 29.91 1013 10 16.09344 0 0
1:52 am 01:52 Clear 77 25 66 18.9 69 69 NW 8 13 29.91 1013 10 16.09344 0 0
2:52 am 02:52 Clear 76 24.4 65 18.3 69 69 NNW 7 11 29.94 1014 10 16.09344 0 0
3:52 am 03:52 Clear 74 23.3 66 18.9 76 76 N 5 7 29.94 1014 10 16.09344 0 0
4:52 am 04:52 Mostly Clear 74 23.3 65 18.3 74 74 NNE 6 9 29.94 1014 10 16.09344 0 0
5:52 am 05:52 Mostly Cloudy 73 22.8 65 18.3 76 76 NNE 6 9 29.97 1015 10 16.09344 0 0
6:52 am 06:52 Cloudy 74 23.3 66 18.9 76 76 N 6 9 29.97 1015 10 16.09344 0 0
7:52 am 07:52 Cloudy 76 24.4 66 18.9 72 72 NW 10 17 30 1016 10 16.09344 0 0
8:52 am 08:52 Mostly Cloudy 80 26.7 67 19.4 64 64 N 7 11 30 1016 10 16.09344 0 0
9:52 am 09:52 Mostly Cloudy 84 28.9 67 19.4 57 57 N 8 13 30.03 1017 10 16.09344 0 0
10:52 am 10:52 Mostly Cloudy 86 30 65 18.3 49 49 N 6 9 30.03 1017 10 16.09344 0 0
11:52 am 11:52 Mostly Cloudy 88 31.1 65 18.3 46 46 Calm 30.03 1017 10 16.09344 0 0
12:52 pm 12:52 Mostly Cloudy 87 30.6 66 18.9 50 50 NE 5 7 30.03 1017 10 16.09344 0 0
1:52 pm 13:52 Mostly Cloudy 90 32.2 64 17.8 42 42 WNW 5 7 30.03 1017 10 16.09344 0 0
2:52 pm 14:52 Partly Cloudy 91 32.8 64 17.8 41 41 N 5 7 30 1016 10 16.09344 0 0
3:52 pm 15:52 Partly Cloudy 92 33.3 63 17.2 38 38 N 3 6 30 1016 10 16.09344 0 0
4:52 pm 16:52 Partly Cloudy 90 32.2 65 18.3 44 44 S 7 11 30 1016 10 16.09344 0 0
5:52 pm 17:52 Mostly Sunny 91 32.8 68 20 47 47 N 3 6 29.97 1015 10 16.09344 0 0
6:52 pm 18:52 Partly Cloudy 90 32.2 65 18.3 44 44 N 8 13 30 1016 10 16.09344 0 0
7:52 pm 19:52 Partly Cloudy 87 30.6 63 17.2 45 45 NNW 10 17 30 1016 10 16.09344 0 0
8:52 pm 20:52 Mostly Cloudy 85 29.4 64 17.8 50 50 NNW 7 11 30 1016 10 16.09344 0 0
9:52 pm 21:52 Mostly Clear 83 28.3 66 18.9 57 57 SSW 5 7 30 1016 10 16.09344 0 0
10:52 pm 22:52 Partly Cloudy 79 26.1 69 20.6 72 72 S 5 7 30.03 1017 10 16.09344 0 0
11:52 pm 23:52 Partly Cloudy 79 26.1 68 20 69 69 S 5 7 30.03 1017 10 16.09344 0 0

Powered by AerisWeather